ID Time Temp Humidity Light PM2.5 PM10 Voltage Extra Firmware Position Fcnt Gateways Distance RSSI LSNR Radiosettings
2020-11-23 19:55:56 5.125°C -0.375% 3.27V 9630,12,15194,95,13519,122,10514,118,14902,110,15809,102 v255 52.1748 / 5.39624 0 0.152km -91 8.5 867.1Mhz, SF7BW125, 4/5CR
2020-11-23 19:24:22 4.8125°C -0.375% 3.27V 9695,12,15216,94,13533,122,10523,118,14922,110,15803,102 v255 52.1749 / 5.39609 0 0.136km -89 9.8 867.1Mhz, SF7BW125, 4/5CR
- -112 4.5 867.1Mhz, SF7BW125, 4/5CR
2020-11-23 18:52:51 5.3125°C -0.125% 3.26V 9713,12,15206,95,13529,122,10524,118,14918,110,15838,103 v255 52.1749 / 5.39609 0 0.135km -90 10 867.1Mhz, SF7BW125, 4/5CR
- -114 5.25 867.1Mhz, SF7BW125, 4/5CR
2020-11-23 18:21:20 5.5625°C -0.25% 3.26V 9723,12,15220,96,13542,122,10520,118,14934,110,15921,103 v255 52.1749 / 5.39609 0 0.135km -88 9.5 867.1Mhz, SF7BW125, 4/5CR
- -111 5 867.1Mhz, SF7BW125, 4/5CR
2020-11-23 17:49:50 6.25°C -0.25% 3.26V 9721,12,15191,99,13518,122,10500,118,14908,110,15955,104 v255 52.1749 / 5.39615 0 0.135km -87 9.2 867.1Mhz, SF7BW125, 4/5CR
- -115 4 867.1Mhz, SF7BW125, 4/5CR
2020-11-23 17:18:22 6.6875°C -1.25% 3.27V 9707,12,15192,100,13517,122,10496,118,14902,110,15971,104 v255 52.1749 / 5.39615 0 0.133km -96 8.8 867.7Mhz, SF7BW125, 4/5CR
- -116 -3 867.7Mhz, SF7BW125, 4/5CR
2020-11-23 16:46:58 7.4375°C -4% 3.27V 9806,12,15192,103,13511,122,10490,118,14893,110,16009,105 v255 52.1749 / 5.39615 0 0.135km -87 9.5 867.1Mhz, SF7BW125, 4/5CR
- -118 0.25 867.1Mhz, SF7BW125, 4/5CR
2020-11-23 16:15:20 8.125°C 114.75% 3.26V 9988,12,15184,105,13505,122,10479,118,14893,110,16026,105 v255 52.1748 / 5.39627 0 0.15km -97 9 867.7Mhz, SF7BW125, 4/5CR
- -118 0 867.7Mhz, SF7BW125, 4/5CR
2020-11-23 15:43:53 8.875°C 110.562% 3.26V 10088,12,15173,108,13498,122,10467,118,14886,110,16039,105 v255 52.1749 / 5.39615 0 0.136km -95 8 867.5Mhz, SF7BW125, 4/5CR
- -118 -3.75 867.5Mhz, SF7BW125, 4/5CR
2020-11-23 15:12:25 9.375°C 107.312% 3.26V 10169,12,15200,110,13501,122,10484,118,14904,110,16078,105 v255 52.1749 / 5.39612 0 0.135km -93 9.2 867.1Mhz, SF7BW125, 4/5CR
- -119 -0.75 867.1Mhz, SF7BW125, 4/5CR
2020-11-23 14:40:53 9.5625°C 103.688% 3.26V 10150,12,15181,111,13475,122,10466,118,14886,110,16057,105 v255 52.1749 / 5.39609 0 0.134km -96 8.8 867.1Mhz, SF7BW125, 4/5CR
2020-11-23 14:09:16 10.4375°C 100.5% 3.26V 10132,12,15156,119,13453,122,10437,118,14860,110,16024,104 v255 52.1749 / 5.39615 0 0.139km -91 10 867.9Mhz, SF7BW125, 4/5CR
2020-11-23 13:37:49 11.5625°C 96.25% 3.26V 10099,12,15133,129,13414,121,10400,118,14834,111,15959,103 v255 52.1749 / 5.39615 0 0.136km -97 10 867.1Mhz, SF7BW125, 4/5CR
- -118 -3.75 867.1Mhz, SF7BW125, 4/5CR
2020-11-23 13:06:13 11.5°C 95.9375% 3.27V 10136,12,15159,121,13446,122,10427,118,14857,111,16009,102 v255 52.1749 / 5.39612 0 0.135km -89 9.8 867.1Mhz, SF7BW125, 4/5CR
- -118 1 867.1Mhz, SF7BW125, 4/5CR
2020-11-23 12:03:17 8.25°C -3.875% 3.26V 10122,12,15180,108,13483,122,10466,118,14881,111,16042,101 v255 52.1749 / 5.39615 0 0.134km -90 10.2 867.1Mhz, SF7BW125, 4/5CR
- -113 1.5 867.1Mhz, SF7BW125, 4/5CR
2020-11-23 11:00:14 6.5°C -0.5625% 3.27V 9813,12,15195,102,13504,122,10486,118,14901,111,15992,100 v255 52.175 / 5.39612 0 0.124km -91 9.8 867.1Mhz, SF7BW125, 4/5CR
- -119 -1.75 867.1Mhz, SF7BW125, 4/5CR
2020-11-23 10:28:51 5.625°C -2.3125% 3.27V 9754,12,15194,99,13509,122,10500,118,14904,111,15920,100 v255 52.1748 / 5.39615 0 0.147km -95 10.8 867.1Mhz, SF7BW125, 4/5CR
2020-11-23 09:57:23 5.125°C -2.1875% 3.27V 9741,12,15210,97,13518,122,10521,118,14926,112,15908,99 v255 52.175 / 5.39615 0 0.125km -93 9.5 867.1Mhz, SF7BW125, 4/5CR
- -115 3 867.1Mhz, SF7BW125, 4/5CR
2020-11-23 09:25:48 4.125°C -3.6875% 3.27V 9735,12,15210,94,13527,122,10523,118,14922,112,15805,99 v255 52.1749 / 5.39612 0 0.136km -90 9.2 867.1Mhz, SF7BW125, 4/5CR
- -114 3.25 867.1Mhz, SF7BW125, 4/5CR
2020-11-23 08:54:24 3.8125°C -3.5625% 3.27V 9711,12,15212,92,13517,122,10527,118,14914,112,15764,100 v255 52.1749 / 5.39612 0 0.137km -91 10 867.1Mhz, SF7BW125, 4/5CR
- -115 3.75 867.1Mhz, SF7BW125, 4/5CR
2020-11-23 08:22:55 3.5625°C -3.6875% 3.27V 9711,12,15224,91,13542,122,10534,118,14934,112,15769,100 v255 52.1749 / 5.39609 0 0.134km -89 9.2 867.3Mhz, SF7BW125, 4/5CR
- -117 -1.5 867.3Mhz, SF7BW125, 4/5CR
2020-11-23 07:51:29 3.4375°C -3.375% 3.27V 9729,12,15220,90,13538,122,10534,118,14935,112,15768,100 v255 52.1748 / 5.39609 0 0.146km -88 8.5 867.1Mhz, SF7BW125, 4/5CR
- -113 3 867.1Mhz, SF7BW125, 4/5CR
2020-11-23 07:19:59 3.5625°C -4.125% 3.27V 9700,12,15224,90,13534,122,10531,118,14934,112,15773,100 v255 52.1749 / 5.39612 0 0.136km -90 9.5 867.1Mhz, SF7BW125, 4/5CR
- -114 3.75 867.1Mhz, SF7BW125, 4/5CR
2020-11-23 06:48:28 3.5625°C -3.1875% 3.26V 9715,12,15222,91,13540,122,10529,118,14939,112,15791,101 v255 52.1749 / 5.39615 0 0.135km -90 7.2 867.5Mhz, SF7BW125, 4/5CR
- -118 -4.5 867.5Mhz, SF7BW125, 4/5CR
2020-11-23 06:17:00 3.5°C -2.1875% 3.27V 9678,12,15220,90,13533,122,10535,118,14940,112,15730,101 v255 52.1749 / 5.39606 0 0.133km -88 8.8 867.1Mhz, SF7BW125, 4/5CR
- -113 4.25 867.1Mhz, SF7BW125, 4/5CR
2020-11-23 05:45:27 3.75°C -2.5625% 3.27V 9699,12,15219,91,13534,122,10530,118,14934,112,15773,101 v255 52.1749 / 5.39609 0 0.136km -91 9.8 867.1Mhz, SF7BW125, 4/5CR
- -114 4.5 867.1Mhz, SF7BW125, 4/5CR
2020-11-23 05:14:01 3.875°C -2.3125% 3.27V 9695,12,15227,92,13540,122,10530,118,14925,112,15770,101 v255 52.1749 / 5.39609 0 0.133km -89 8.8 867.1Mhz, SF7BW125, 4/5CR
- -110 5.75 867.1Mhz, SF7BW125, 4/5CR
2020-11-23 04:42:35 4°C -2.125% 3.26V 9682,12,15223,92,13534,122,10525,118,14926,113,15758,102 v255 52.1749 / 5.39615 0 0.141km -91 7.5 867.5Mhz, SF7BW125, 4/5CR
- -115 -7.75 867.5Mhz, SF7BW125, 4/5CR
2020-11-23 04:11:01 4.0625°C -1.5% 3.27V 9730,12,15206,92,13524,122,10523,118,14932,113,15774,102 v255 52.1749 / 5.39609 0 0.136km -93 10 867.1Mhz, SF7BW125, 4/5CR
2020-11-23 03:39:38 4.25°C -0.8125% 3.27V 9723,12,15224,92,13530,122,10523,118,14928,113,15774,102 v255 52.1749 / 5.39615 0 0.138km -90 9 867.1Mhz, SF7BW125, 4/5CR
- -111 -0.5 867.1Mhz, SF7BW125, 4/5CR
2020-11-23 03:08:05 4.4375°C -0.125% 3.27V 9733,12,15240,94,13560,122,10543,118,14956,113,15808,103 v255 52.1749 / 5.39615 0 0.134km -90 9.5 867.1Mhz, SF7BW125, 4/5CR
- -113 5.5 867.1Mhz, SF7BW125, 4/5CR
2020-11-23 02:36:37 4.375°C -1% 3.27V 9701,12,15217,94,13527,122,10521,118,14935,113,15759,104 v255 52.1749 / 5.39624 0 0.139km -90 8.8 867.1Mhz, SF7BW125, 4/5CR
- -112 6 867.1Mhz, SF7BW125, 4/5CR
2020-11-23 02:05:05 4.3125°C -0.8125% 3.27V 9740,12,15213,94,13535,122,10525,118,14923,113,15777,104 v255 52.1749 / 5.39612 0 0.132km -91 10.5 867.1Mhz, SF7BW125, 4/5CR
- -114 5.5 867.1Mhz, SF7BW125, 4/5CR
2020-11-23 01:33:44 4.6875°C -0.0625% 3.27V 9738,12,15231,94,13551,122,10531,118,14944,113,15812,104 v255 52.1749 / 5.39615 0 0.134km -90 9 867.1Mhz, SF7BW125, 4/5CR
- -113 4.75 867.1Mhz, SF7BW125, 4/5CR
2020-11-23 01:02:10 4.75°C -0.9375% 3.27V 9728,12,15214,95,13537,122,10523,118,14929,113,15817,105 v255 52.1748 / 5.39615 0 0.146km -91 7 867.5Mhz, SF7BW125, 4/5CR
- -114 -6.75 867.5Mhz, SF7BW125, 4/5CR
2020-11-23 00:30:38 5.125°C -0.5625% 3.27V 9733,12,15200,96,13524,122,10502,118,14933,113,15843,105 v255 52.1749 / 5.39618 0 0.137km -89 9.2 867.1Mhz, SF7BW125, 4/5CR
- -113 5.75 867.1Mhz, SF7BW125, 4/5CR
2020-11-22 23:59:14 5.375°C -0.1875% 3.27V 9726,12,15196,97,13516,122,10502,118,14915,113,15841,106 v255 52.1749 / 5.39612 0 0.137km -87 9 867.1Mhz, SF7BW125, 4/5CR
- -113 4.5 867.1Mhz, SF7BW125, 4/5CR
2020-11-22 23:27:44 5.6875°C -0.0625% 3.27V 9743,12,15189,98,13519,122,10500,118,14910,113,15897,106 v255 52.1749 / 5.39612 0 0.135km -90 9.2 867.1Mhz, SF7BW125, 4/5CR
- -113 5.75 867.1Mhz, SF7BW125, 4/5CR
2020-11-22 22:24:47 6.625°C -0.4375% 3.26V 9749,12,15195,101,13519,122,10492,118,14909,113,15964,107 v255 52.1749 / 5.39615 0 0.135km -89 9.8 867.1Mhz, SF7BW125, 4/5CR
- -111 6.5 867.1Mhz, SF7BW125, 4/5CR
2020-11-22 21:53:19 7°C -1.375% 3.26V 9770,12,15185,102,13516,122,10488,118,14910,113,15989,107 v255 52.1749 / 5.39612 0 0.139km -91 10.2 867.1Mhz, SF7BW125, 4/5CR
- -114 4.75 867.1Mhz, SF7BW125, 4/5CR
2020-11-22 21:21:49 6.75°C -0.5% 3.27V 9791,12,15201,101,13510,122,10485,118,14906,113,15977,107 v255 52.1749 / 5.39609 0 0.136km -88 9 867.1Mhz, SF7BW125, 4/5CR
- -111 6.5 867.1Mhz, SF7BW125, 4/5CR
2020-11-22 20:50:20 6.375°C -3.75% 3.26V 9753,12,15191,101,13519,122,10490,118,14898,113,15967,107 v255 52.1749 / 5.39615 0 0.135km -91 10.2 867.1Mhz, SF7BW125, 4/5CR
- -113 6 867.1Mhz, SF7BW125, 4/5CR
2020-11-22 20:18:49 5.8125°C -4.125% 3.27V 9771,12,15202,99,13540,122,10498,118,14922,113,15915,108 v255 52.1749 / 5.39609 0 0.138km -90 9 867.1Mhz, SF7BW125, 4/5CR
- -111 5.5 867.1Mhz, SF7BW125, 4/5CR
2020-11-22 19:47:18 5.625°C 118.562% 3.27V 9735,12,15201,99,13529,122,10500,118,14937,113,15927,108 v255 52.1749 / 5.39615 0 0.135km -91 9.5 867.1Mhz, SF7BW125, 4/5CR
- -113 5.25 867.1Mhz, SF7BW125, 4/5CR
2020-11-22 19:15:53 5.625°C -3.1875% 3.27V 9745,12,15188,98,13524,122,10502,118,14909,113,15890,109 v255 52.1749 / 5.39612 0 0.138km -91 10.2 867.1Mhz, SF7BW125, 4/5CR
- -111 5.5 867.1Mhz, SF7BW125, 4/5CR
2020-11-22 18:44:24 5.9375°C -4.25% 3.27V 9742,12,15185,100,13522,122,10494,118,14918,113,15939,109 v255 52.1749 / 5.39606 0 0.135km -90 10.2 867.1Mhz, SF7BW125, 4/5CR
- -112 6.75 867.1Mhz, SF7BW125, 4/5CR
2020-11-22 18:12:52 6.25°C -2.375% 3.26V 9732,12,15198,99,13531,122,10499,118,14911,113,15969,110 v255 52.1749 / 5.39612 0 0.136km -93 10.2 867.3Mhz, SF7BW125, 4/5CR
- -113 5.25 867.3Mhz, SF7BW125, 4/5CR
2020-11-22 17:41:22 7.5°C -0.9375% 3.26V 9805,12,15187,103,13503,122,10483,118,14901,113,15999,111 v255 52.1749 / 5.39618 0 0.137km -93 8 867.5Mhz, SF7BW125, 4/5CR
- -116 -5.25 867.5Mhz, SF7BW125, 4/5CR
2020-11-22 17:09:48 8.0625°C -0.875% 3.27V 9979,12,15160,106,13491,122,10463,118,14883,113,16023,111 v255 52.1748 / 5.39618 0 0.147km -88 9.2 867.1Mhz, SF7BW125, 4/5CR
- -115 3.25 867.1Mhz, SF7BW125, 4/5CR
2020-11-22 16:38:20 8.4375°C -1.4375% 3.26V 10020,12,15192,107,13503,122,10477,118,14902,113,16044,112 v255 52.1748 / 5.396 0 0.144km -90 9.8 867.9Mhz, SF7BW125, 4/5CR
- -119 -2.75 867.9Mhz, SF7BW125, 4/5CR
2020-11-22 16:06:51 9.3125°C -3.0625% 3.27V 10146,12,15186,110,13500,122,10466,118,14909,113,16078,112 v255 52.1749 / 5.39615 0 0.137km -93 10.5 867.7Mhz, SF7BW125, 4/5CR
- -114 1 867.7Mhz, SF7BW125, 4/5CR
2020-11-22 15:35:14 9.875°C -3.1875% 3.26V 10141,12,15161,112,13468,122,10442,118,14867,113,16033,113 v255 52.1749 / 5.39612 0 0.138km -97 7.8 867.5Mhz, SF7BW125, 4/5CR
- -114 -2.75 867.5Mhz, SF7BW125, 4/5CR
2020-11-22 15:03:45 10.4375°C -4.25% 3.27V 10147,12,15156,114,13485,122,10447,118,14891,113,16045,113 v255 52.1747 / 5.39627 0 0.16km -95 9.8 867.9Mhz, SF7BW125, 4/5CR
- -113 2.5 867.9Mhz, SF7BW125, 4/5CR
2020-11-22 14:32:10 10.75°C -4% 3.27V 10133,12,15142,116,13462,122,10429,118,14875,112,16044,113 v255 52.175 / 5.39609 0 0.124km -101 9.2 867.3Mhz, SF7BW125, 4/5CR
- -111 5.25 867.3Mhz, SF7BW125, 4/5CR
2020-11-22 14:00:42 10.9375°C -4% 3.27V 10134,12,15155,118,13461,122,10425,118,14883,112,16042,113 v255 52.1749 / 5.39612 0 0.135km -108 6 867.5Mhz, SF7BW125, 4/5CR
- -114 -3.25 867.5Mhz, SF7BW125, 4/5CR
2020-11-22 13:29:15 11.1875°C -4.0625% 3.26V 10125,12,15146,121,13464,122,10419,118,14877,112,16024,113 v255 52.1749 / 5.39615 0 0.132km -89 9.8 867.1Mhz, SF7BW125, 4/5CR
- -111 5.25 867.1Mhz, SF7BW125, 4/5CR
2020-11-22 12:57:43 11.4375°C -4.6875% 3.26V 10133,12,15158,120,13462,122,10428,118,14892,112,16042,113 v255 52.1749 / 5.39615 0 0.136km -99 9 867.1Mhz, SF7BW125, 4/5CR
- -114 3.25 867.1Mhz, SF7BW125, 4/5CR
2020-11-22 12:26:10 11.3125°C 115.125% 3.27V 10123,12,15149,120,13460,122,10424,118,14887,112,16078,112 v255 52.1749 / 5.39609 0 0.135km -89 9.5 867.1Mhz, SF7BW125, 4/5CR
- -113 7 867.1Mhz, SF7BW125, 4/5CR
2020-11-22 11:54:35 10.9375°C 108.438% 3.27V 10128,12,15145,119,13452,122,10414,118,14882,112,16052,112 v255 52.1749 / 5.39615 0 0.138km -95 9.8 867.1Mhz, SF7BW125, 4/5CR
- -114 3 867.1Mhz, SF7BW125, 4/5CR
2020-11-22 11:23:05 10.375°C 107.375% 3.27V 10137,12,15159,115,13481,122,10439,118,14914,112,16092,111 v255 52.1749 / 5.39621 0 0.138km -94 9.8 867.1Mhz, SF7BW125, 4/5CR
- -115 3 867.1Mhz, SF7BW125, 4/5CR
2020-11-22 10:51:33 10.1875°C 105% 3.26V 10147,12,15157,115,13475,122,10432,118,14901,112,16087,111 v255 52.1749 / 5.39612 0 0.138km -95 10 867.1Mhz, SF7BW125, 4/5CR
- -113 4 867.1Mhz, SF7BW125, 4/5CR
2020-11-22 10:20:02 9.625°C 105.438% 3.27V 10152,12,15179,112,13508,122,10460,118,14940,112,16127,110 v255 52.1749 / 5.39612 0 0.138km -95 9.2 867.1Mhz, SF7BW125, 4/5CR
- -115 1.25 867.1Mhz, SF7BW125, 4/5CR
2020-11-22 09:17:04 9.3125°C 105.688% 3.27V 10158,12,15179,111,13506,122,10465,118,14952,112,16148,110 v255 52.1749 / 5.39615 0 0.137km -103 9.5 867.3Mhz, SF7BW125, 4/5CR
- -115 1.25 867.3Mhz, SF7BW125, 4/5CR
2020-11-22 08:45:26 9.25°C 105.688% 3.27V 10129,12,15176,109,13515,122,10465,118,14960,112,16159,110 v255 52.1749 / 5.39615 0 0.138km -91 9.8 867.1Mhz, SF7BW125, 4/5CR
- -117 -2 867.1Mhz, SF7BW125, 4/5CR
2020-11-22 08:13:58 9.375°C 104.875% 3.26V 10140,12,15167,109,13516,122,10462,118,14935,112,16141,110 v255 52.1749 / 5.39612 0 0.134km -98 8.8 867.7Mhz, SF7BW125, 4/5CR
2020-11-22 07:42:32 9.625°C 103.688% 3.26V 10149,12,15175,110,13522,122,10467,118,14945,112,16156,110 v255 52.1749 / 5.39615 0 0.136km -93 8.8 867.1Mhz, SF7BW125, 4/5CR
- -118 -4.5 867.1Mhz, SF7BW125, 4/5CR
2020-11-22 07:10:55 9.75°C 104.312% 3.26V 10153,12,15175,111,13513,122,10463,118,14961,112,16167,110 v255 52.1749 / 5.39615 0 0.137km -101 9.8 867.1Mhz, SF7BW125, 4/5CR
2020-11-22 06:39:25 9.6875°C 105.125% 3.27V 10151,12,15168,110,13504,122,10464,118,14954,112,16147,110 v255 52.1749 / 5.39618 0 0.137km -94 9.8 867.1Mhz, SF7BW125, 4/5CR
- -118 -3.25 867.1Mhz, SF7BW125, 4/5CR
2020-11-22 06:07:53 9.625°C 105.625% 3.26V 10150,12,15174,110,13499,122,10464,118,14937,112,16138,110 v255 52.1749 / 5.39612 0 0.135km -91 9.2 867.1Mhz, SF7BW125, 4/5CR
- -115 2 867.1Mhz, SF7BW125, 4/5CR
2020-11-22 05:36:20 9.625°C 106.438% 3.26V 10139,12,15159,110,13477,122,10462,118,14923,112,16109,110 v255 52.1749 / 5.39603 0 0.132km -95 10.2 867.1Mhz, SF7BW125, 4/5CR
- -119 -0.25 867.1Mhz, SF7BW125, 4/5CR
2020-11-22 05:04:49 9.5625°C 107.688% 3.26V 10141,12,15184,110,13491,122,10462,118,14925,112,16114,110 v255 52.1749 / 5.39612 0 0.135km -91 9 867.1Mhz, SF7BW125, 4/5CR
- -120 -4.75 867.1Mhz, SF7BW125, 4/5CR
2020-11-22 04:33:20 9.5°C 109.312% 3.27V 10140,12,15167,110,13497,122,10465,118,14919,112,16106,110 v255 52.1749 / 5.39615 0 0.136km -95 9.5 867.1Mhz, SF7BW125, 4/5CR
- -120 -6.5 867.1Mhz, SF7BW125, 4/5CR
2020-11-22 04:01:52 9.4375°C 111.75% 3.27V 10125,12,15172,109,13487,122,10473,119,14907,112,16082,109 v255 52.1749 / 5.39612 0 0.135km -85 9.2 867.1Mhz, SF7BW125, 4/5CR
- -120 -4.5 867.1Mhz, SF7BW125, 4/5CR
2020-11-22 03:30:18 9.5°C 113.875% 3.27V 10090,12,15183,109,13495,122,10466,119,14891,112,16047,109 v255 52.1749 / 5.39615 0 0.136km -91 9 867.9Mhz, SF7BW125, 4/5CR
- -118 0.25 867.9Mhz, SF7BW125, 4/5CR
2020-11-22 02:58:49 9.625°C 116.125% 3.27V 10159,12,15190,110,13502,122,10475,119,14905,112,16063,109 v255 52.1748 / 5.3963 0 0.151km -89 9.8 867.1Mhz, SF7BW125, 4/5CR
- -113 3.75 867.1Mhz, SF7BW125, 4/5CR
2020-11-22 02:27:14 9.6875°C 116.875% 3.27V 10139,12,15163,111,13481,123,10458,119,14877,112,16028,109 v255 52.1749 / 5.39612 0 0.135km -91 10 867.9Mhz, SF7BW125, 4/5CR
- -119 -3.25 867.9Mhz, SF7BW125, 4/5CR
2020-11-22 01:55:47 9.8125°C 117.062% 3.27V 10147,12,15165,111,13484,123,10464,119,14876,112,16023,109 v255 52.1749 / 5.39624 0 0.139km -97 10.2 867.1Mhz, SF7BW125, 4/5CR
- -118 2 867.1Mhz, SF7BW125, 4/5CR
2020-11-22 01:24:09 9.8125°C 117.125% 3.27V 10137,12,15165,111,13468,123,10454,119,14870,112,16024,109 v255 52.1749 / 5.39615 0 0.135km -90 10 867.1Mhz, SF7BW125, 4/5CR
- -119 0.25 867.1Mhz, SF7BW125, 4/5CR
2020-11-22 00:52:45 9.75°C 116.75% 3.26V 10146,12,15182,111,13495,123,10468,119,14894,112,16040,109 v255 52.1749 / 5.39621 0 0.138km -99 9.8 867.1Mhz, SF7BW125, 4/5CR
- -119 -0.25 867.1Mhz, SF7BW125, 4/5CR
2020-11-22 00:21:14 9.6875°C 116.625% 3.26V 10152,12,15172,111,13470,123,10456,119,14872,112,16023,109 v255 52.175 / 5.39612 0 0.125km -93 9.8 867.1Mhz, SF7BW125, 4/5CR
- -117 1.25 867.1Mhz, SF7BW125, 4/5CR
2020-11-21 23:49:42 9.6875°C 116.688% 3.27V 10164,12,15196,111,13498,123,10476,119,14900,112,16065,109 v255 52.1748 / 5.39615 0 0.146km -93 9.2 867.9Mhz, SF7BW125, 4/5CR
- -119 -2.5 867.9Mhz, SF7BW125, 4/5CR
2020-11-21 23:18:06 9.625°C 116.188% 3.27V 10142,12,15166,110,13479,123,10460,119,14882,111,16040,109 v255 52.1748 / 5.39606 0 0.142km -97 10 867.1Mhz, SF7BW125, 4/5CR
- -117 1.75 867.1Mhz, SF7BW125, 4/5CR
2020-11-21 22:46:34 9.5625°C 115.312% 3.27V 10131,12,15165,109,13489,123,10469,119,14885,111,16071,109 v255 52.1749 / 5.39615 0 0.134km -93 10.5 867.1Mhz, SF7BW125, 4/5CR
- -115 3.5 867.1Mhz, SF7BW125, 4/5CR
2020-11-21 22:15:09 9.4375°C 115% 3.26V 10128,12,15166,109,13475,123,10462,119,14876,111,16026,109 v255 52.1748 / 5.39612 0 0.145km -91 10.2 867.1Mhz, SF7BW125, 4/5CR
- -115 4.25 867.1Mhz, SF7BW125, 4/5CR
2020-11-21 21:43:32 9.5°C 116.438% 3.26V 10117,12,15156,110,13466,123,10446,119,14860,111,16004,109 v255 52.1749 / 5.39609 0 0.133km -90 9.2 867.1Mhz, SF7BW125, 4/5CR
- -115 3.75 867.1Mhz, SF7BW125, 4/5CR
2020-11-21 21:11:59 9.4375°C 115.312% 3.26V 10132,12,15167,109,13483,123,10455,119,14875,111,16030,109 v255 52.1749 / 5.39612 0 0.134km -87 9.2 867.1Mhz, SF7BW125, 4/5CR
- -111 5 867.1Mhz, SF7BW125, 4/5CR
2020-11-21 20:40:28 9.375°C 115.312% 3.27V 10111,12,15173,109,13474,123,10461,119,14872,111,16026,108 v255 52.1749 / 5.39615 0 0.134km -91 9.8 867.1Mhz, SF7BW125, 4/5CR
- -119 1.25 867.1Mhz, SF7BW125, 4/5CR
2020-11-21 20:09:02 9.4375°C 116.375% 3.26V 10125,12,15170,109,13477,123,10461,119,14871,111,16021,108 v255 52.1748 / 5.39615 0 0.146km -87 9.5 867.1Mhz, SF7BW125, 4/5CR
- -118 1.5 867.1Mhz, SF7BW125, 4/5CR
2020-11-21 19:37:27 9.375°C 116.625% 3.27V 10113,12,15173,109,13477,123,10469,119,14885,111,16021,108 v255 52.1749 / 5.39615 0 0.137km -97 9.2 867.1Mhz, SF7BW125, 4/5CR
- -119 -0.5 867.1Mhz, SF7BW125, 4/5CR
2020-11-21 19:05:53 9.3125°C 116.562% 3.26V 10124,12,15183,109,13498,123,10478,119,14893,111,16027,108 v255 52.175 / 5.39606 0 0.126km -89 7.5 867.1Mhz, SF7BW125, 4/5CR
- -118 -1.5 867.1Mhz, SF7BW125, 4/5CR
2020-11-21 18:34:24 9.3125°C 117.25% 3.26V 10094,12,15171,108,13479,123,10470,119,14875,111,16012,108 v255 52.1749 / 5.39615 0 0.138km -93 10 867.1Mhz, SF7BW125, 4/5CR
- -119 -3.5 867.1Mhz, SF7BW125, 4/5CR
2020-11-21 18:02:56 9.4375°C -5.3125% 3.27V 10116,12,15160,109,13483,123,10461,119,14865,111,16006,108 v255 52.1749 / 5.39612 0 0.137km -91 10.2 867.1Mhz, SF7BW125, 4/5CR
- -115 2 867.1Mhz, SF7BW125, 4/5CR
2020-11-21 17:31:21 9.375°C -3.4375% 3.27V 10133,12,15193,109,13496,123,10473,119,14884,111,16020,108 v255 52.1749 / 5.39606 0 0.135km -89 9.2 867.1Mhz, SF7BW125, 4/5CR
- -118 1.5 867.1Mhz, SF7BW125, 4/5CR
2020-11-21 16:59:52 9.3125°C -3.5625% 3.27V 10084,12,15189,108,13501,123,10476,119,14891,111,16017,108 v255 52.1749 / 5.39612 0 0.137km -96 9.5 867.1Mhz, SF7BW125, 4/5CR
- -117 1.5 867.1Mhz, SF7BW125, 4/5CR
2020-11-21 16:28:21 9.625°C -1.375% 3.27V 10142,12,15180,110,13488,123,10473,119,14869,111,15987,108 v255 52.1749 / 5.39618 0 0.136km -93 8.8 867.7Mhz, SF7BW125, 4/5CR
- -116 -5.5 867.7Mhz, SF7BW125, 4/5CR
2020-11-21 15:56:47 9.6875°C -0.5625% 3.26V 10160,12,15206,110,13492,123,10474,119,14877,111,15997,107 v255 52.1749 / 5.39618 0 0.137km -85 9.8 867.1Mhz, SF7BW125, 4/5CR
- -111 5.75 867.1Mhz, SF7BW125, 4/5CR
2020-11-21 15:25:20 9.8125°C -0.25% 3.27V 10165,12,15192,111,13498,123,10472,119,14878,111,15998,107 v255 52.1749 / 5.39609 0 0.134km -103 8.2 867.1Mhz, SF7BW125, 4/5CR
- -114 1.5 867.1Mhz, SF7BW125, 4/5CR
2020-11-21 14:53:45 9.9375°C 0% 3.27V 10158,12,15192,111,13491,123,10466,119,14869,111,15993,107 v255 52.1749 / 5.39612 0 0.136km -88 9.5 867.1Mhz, SF7BW125, 4/5CR
- -113 5.75 867.1Mhz, SF7BW125, 4/5CR
2020-11-21 14:22:14 9.8125°C 0.0625% 3.27V 10158,12,15193,111,13489,123,10472,119,14872,111,15987,107 v255 52.1749 / 5.39615 0 0.137km -87 7.5 867.5Mhz, SF7BW125, 4/5CR
- -114 -0.25 867.5Mhz, SF7BW125, 4/5CR
2020-11-21 13:50:46 9.875°C 0.125% 3.27V 10171,12,15207,111,13497,123,10478,119,14881,111,16006,106 v255 52.1749 / 5.39615 0 0.136km -95 10 867.7Mhz, SF7BW125, 4/5CR
- -113 1 867.7Mhz, SF7BW125, 4/5CR
2020-11-21 13:19:12 9.9375°C -0.3125% 3.27V 10158,12,15171,112,13462,123,10449,119,14835,111,15964,106 v255 52.1749 / 5.39612 0 0.135km -90 9.2 867.1Mhz, SF7BW125, 4/5CR
- -115 3.25 867.1Mhz, SF7BW125, 4/5CR
2020-11-21 12:47:43 9.5625°C -1.0625% 3.26V 10139,12,15168,110,13466,123,10459,119,14849,111,15953,105 v255 52.1749 / 5.39612 0 0.136km -103 9.8 867.1Mhz, SF7BW125, 4/5CR
2020-11-21 12:16:09 8.9375°C -1.625% 3.27V 10108,12,15175,108,13480,123,10466,119,14860,111,15956,105 v255 52.1749 / 5.39615 0 0.135km -85 8.8 867.1Mhz, SF7BW125, 4/5CR
- -115 4 867.1Mhz, SF7BW125, 4/5CR
2020-11-21 11:44:36 8.5°C -1.875% 3.26V 9997,12,15175,107,13478,123,10460,119,14854,111,15929,104 v255 52.1749 / 5.39615 0 0.136km -95 10.2 867.1Mhz, SF7BW125, 4/5CR
- -113 2.25 867.1Mhz, SF7BW125, 4/5CR
2020-11-21 10:41:39 7.9375°C -2.25% 3.27V 9814,12,15175,104,13484,123,10482,120,14879,111,15894,104 v255 52.1749 / 5.39615 0 0.135km -89 9.5 867.1Mhz, SF7BW125, 4/5CR
- -116 -0.75 867.1Mhz, SF7BW125, 4/5CR
2020-11-21 10:10:14 7.75°C -1.8125% 3.27V 9804,12,15196,104,13501,123,10498,120,14886,111,15858,103 v255 52.1749 / 5.39612 0 0.136km -91 9.8 867.1Mhz, SF7BW125, 4/5CR
- -118 2 867.1Mhz, SF7BW125, 4/5CR
2020-11-21 09:38:38 7.625°C -2.3125% 3.27V 9772,12,15181,103,13491,123,10485,120,14862,111,15825,103 v255 52.1749 / 5.39612 0 0.136km -89 10 867.1Mhz, SF7BW125, 4/5CR
- -113 4.5 867.1Mhz, SF7BW125, 4/5CR
2020-11-21 09:07:09 7.25°C -1.625% 3.27V 9769,12,15187,102,13485,123,10479,120,14865,111,15794,102 v255 52.1749 / 5.39609 0 0.136km -88 9 867.9Mhz, SF7BW125, 4/5CR
- -114 4.5 867.9Mhz, SF7BW125, 4/5CR
2020-11-21 08:35:42 6.875°C -1.5% 3.27V 9692,12,15197,100,13499,123,10498,120,14867,111,15774,102 v255 52.1749 / 5.39612 0 0.136km -90 9 867.1Mhz, SF7BW125, 4/5CR
- -117 -0.25 867.1Mhz, SF7BW125, 4/5CR
2020-11-21 08:04:13 6.6875°C -1.125% 3.27V 9739,12,15191,99,13499,123,10501,120,14869,111,15743,102 v255 52.1749 / 5.39606 0 0.134km -95 9.5 867.9Mhz, SF7BW125, 4/5CR
- -114 5 867.9Mhz, SF7BW125, 4/5CR
2020-11-21 07:32:39 6.5°C 0% 3.26V 9679,12,15199,98,13507,123,10501,120,14879,111,15718,102 v255 52.1749 / 5.39615 0 0.137km -91 8.5 867.1Mhz, SF7BW125, 4/5CR
- -119 -2 867.1Mhz, SF7BW125, 4/5CR
2020-11-21 07:01:13 6.3125°C 1.1875% 3.27V 9647,12,15206,98,13514,123,10503,120,14888,111,15710,101 v255 52.1749 / 5.39615 0 0.137km -87 9.8 867.1Mhz, SF7BW125, 4/5CR
- -118 1.75 867.1Mhz, SF7BW125, 4/5CR
2020-11-21 06:29:45 6.4375°C 2.8125% 3.27V 9666,12,15194,99,13490,123,10501,120,14863,112,15708,101 v255 52.1749 / 5.39615 0 0.136km -93 9.2 867.1Mhz, SF7BW125, 4/5CR
2020-11-21 05:58:07 6.3125°C 3.1875% 3.27V 9641,12,15205,98,13504,123,10504,120,14872,112,15707,101 v255 52.1749 / 5.39609 0 0.135km -89 9.8 867.1Mhz, SF7BW125, 4/5CR
- -114 2.75 867.1Mhz, SF7BW125, 4/5CR
2020-11-21 05:26:40 6.1875°C 3.25% 3.27V 9657,12,15200,98,13497,123,10511,120,14871,112,15710,101 v255 52.1749 / 5.39612 0 0.135km -90 10 867.1Mhz, SF7BW125, 4/5CR
- -114 2.25 867.1Mhz, SF7BW125, 4/5CR
2020-11-21 04:55:11 6°C 3.5% 3.27V 9709,12,15216,97,13500,123,10504,120,14879,112,15687,100 v255 52.1749 / 5.39615 0 0.137km -96 9.5 867.1Mhz, SF7BW125, 4/5CR
2020-11-21 04:23:42 5.5625°C 4.1875% 3.27V 9660,12,15213,95,13518,123,10524,120,14895,112,15702,100 v255 52.1749 / 5.39615 0 0.139km -91 10.2 867.1Mhz, SF7BW125, 4/5CR
- -119 -4.25 867.1Mhz, SF7BW125, 4/5CR
2020-11-21 03:52:16 5.5625°C 4.0625% 3.27V 9711,12,15235,95,13532,123,10541,120,14907,112,15732,100 v255 52.1749 / 5.39603 0 0.134km -95 9.8 867.1Mhz, SF7BW125, 4/5CR
- -119 -6 867.1Mhz, SF7BW125, 4/5CR
2020-11-21 03:20:43 5.6875°C -0.4375% 3.27V 9715,12,15230,96,13519,123,10529,120,14889,112,15719,100 v255 52.1749 / 5.39612 0 0.137km -89 9.5 867.1Mhz, SF7BW125, 4/5CR
2020-11-21 02:17:49 5.375°C -3.0625% 3.27V 9714,12,15230,95,13534,123,10539,120,14898,112,15753,100 v255 52.1749 / 5.39615 0 0.137km -90 10 867.1Mhz, SF7BW125, 4/5CR
- -118 -0.75 867.1Mhz, SF7BW125, 4/5CR
2020-11-21 01:46:16 5.375°C -5.0625% 3.27V 9703,12,15231,95,13518,123,10532,120,14898,112,15732,100 v255 52.1749 / 5.39615 0 0.134km -93 9.5 867.9Mhz, SF7BW125, 4/5CR
- -113 5 867.9Mhz, SF7BW125, 4/5CR
2020-11-21 01:14:50 5.125°C -5.6875% 3.27V 9685,12,15242,94,13536,123,10539,120,14900,112,15757,100 v255 52.1749 / 5.39612 0 0.132km -89 9.8 867.7Mhz, SF7BW125, 4/5CR
- -114 4 867.7Mhz, SF7BW125, 4/5CR
2020-11-21 00:43:23 4.8125°C 118.625% 3.27V 9670,12,15227,93,13528,123,10542,120,14898,113,15722,100 v255 52.1749 / 5.39609 0 0.134km -99 9.8 867.3Mhz, SF7BW125, 4/5CR
- -118 -3 867.3Mhz, SF7BW125, 4/5CR
2020-11-21 00:11:51 4.8125°C -5.6875% 3.27V 9703,12,15240,93,13527,123,10545,120,14900,113,15767,100 v255 52.1749 / 5.39612 0 0.135km -95 9.5 867.1Mhz, SF7BW125, 4/5CR
- -119 0 867.1Mhz, SF7BW125, 4/5CR
2020-11-20 23:40:22 4.9375°C 118.625% 3.27V 9678,12,15197,94,13492,123,10522,120,14878,113,15698,100 v255 52.1748 / 5.39612 0 0.147km -100 9.2 867.1Mhz, SF7BW125, 4/5CR
- -119 1.75 867.1Mhz, SF7BW125, 4/5CR
2020-11-20 23:08:50 4.3125°C -0.6875% 3.27V 9681,12,15228,92,13507,123,10523,120,14872,113,15739,100 v255 52.1747 / 5.39603 0 0.154km -89 8.5 867.3Mhz, SF7BW125, 4/5CR
- -119 -6 867.3Mhz, SF7BW125, 4/5CR
2020-11-20 22:37:23 4.3125°C -1% 3.27V 9702,12,15231,92,13519,123,10531,120,14877,113,15711,101 v255 52.1749 / 5.39615 0 0.134km -91 7.2 867.5Mhz, SF7BW125, 4/5CR
- -117 -3 867.5Mhz, SF7BW125, 4/5CR
2020-11-20 22:05:55 4.5625°C -0.875% 3.27V 9663,12,15226,93,13505,123,10527,120,14867,113,15750,101 v255 52.1748 / 5.39612 0 0.146km -101 9.2 867.1Mhz, SF7BW125, 4/5CR
- -119 -5.75 867.1Mhz, SF7BW125, 4/5CR
2020-11-20 21:02:59 3.875°C 0.875% 3.27V 9685,12,15227,91,13515,123,10540,120,14886,113,15754,101 v255 52.1749 / 5.39618 0 0.137km -95 9.2 867.1Mhz, SF7BW125, 4/5CR
- -115 3.25 867.1Mhz, SF7BW125, 4/5CR
2020-11-20 20:31:28 3.875°C 0.625% 3.27V 9682,12,15220,91,13511,123,10531,121,14877,113,15745,102 v255 52.1748 / 5.39612 0 0.143km -97 9 867.1Mhz, SF7BW125, 4/5CR
2020-11-20 20:00:05 4.1875°C -0.5625% 3.27V 9677,12,15218,92,13515,123,10527,121,14891,113,15772,102 v255 52.175 / 5.39612 0 0.126km -94 9.5 867.1Mhz, SF7BW125, 4/5CR
- -115 3.5 867.1Mhz, SF7BW125, 4/5CR
2020-11-20 19:28:36 4.625°C -3% 3.27V 9706,12,15213,93,13501,123,10527,121,14872,113,15716,103 v255 52.1749 / 5.39615 0 0.137km -95 10 867.1Mhz, SF7BW125, 4/5CR
- -118 -0.5 867.1Mhz, SF7BW125, 4/5CR
2020-11-20 18:57:06 4.5°C -0.3125% 3.26V 9708,12,15218,93,13505,123,10526,121,14868,113,15738,104 v255 52.1749 / 5.39612 0 0.136km -89 10.5 867.3Mhz, SF7BW125, 4/5CR
2020-11-20 18:25:39 4.6875°C -0.5% 3.27V 9708,12,15232,94,13526,123,10536,121,14894,113,15770,104 v255 52.1749 / 5.39609 0 0.136km -93 9.5 867.1Mhz, SF7BW125, 4/5CR
- -115 2.5 867.1Mhz, SF7BW125, 4/5CR
2020-11-20 17:54:05 5.25°C -4.3125% 3.26V 9714,12,15199,96,13504,123,10509,121,14870,113,15757,105 v255 52.1749 / 5.39612 0 0.135km -93 9.5 867.1Mhz, SF7BW125, 4/5CR
- -117 3 867.1Mhz, SF7BW125, 4/5CR
2020-11-20 17:22:38 5.6875°C 118.5% 3.26V 9694,12,15194,97,13500,123,10508,121,14868,113,15745,105 v255 52.1749 / 5.39615 0 0.136km -87 9.5 867.7Mhz, SF7BW125, 4/5CR
- -119 -2 867.7Mhz, SF7BW125, 4/5CR
2020-11-20 16:51:05 6.6875°C 109.188% 3.27V 9715,12,15195,100,13482,123,10492,121,14853,113,15708,106 v255 52.1748 / 5.39624 0 0.149km -87 10 867.1Mhz, SF7BW125, 4/5CR
- -115 2.5 867.1Mhz, SF7BW125, 4/5CR
2020-11-20 16:19:38 7.3125°C 103.688% 3.27V 9725,12,15184,102,13476,123,10485,121,14845,113,15701,106 v255 52.1748 / 5.39615 0 - -115 2 867.1Mhz, SF7BW125, 4/5CR
2020-11-20 15:48:03 7.75°C 99.625% 3.26V 9768,12,15181,104,13481,123,10481,121,14842,113,15709,106 v255 52.1749 / 5.39615 0 0.139km -90 9.5 867.1Mhz, SF7BW125, 4/5CR
- -118 2 867.1Mhz, SF7BW125, 4/5CR
2020-11-20 14:45:05 8°C 102.875% 3.27V 10017,12,15175,106,13466,123,10465,121,14842,113,15742,106 v255 52.1748 / 5.39615 0 0.148km -91 9.5 867.7Mhz, SF7BW125, 4/5CR
- -114 -0.75 867.7Mhz, SF7BW125, 4/5CR
2020-11-20 14:13:34 7.75°C 101.312% 3.27V 9851,12,15188,105,13473,123,10475,121,14838,113,15717,106 v255 52.1749 / 5.39615 0 0.132km -87 9.2 867.1Mhz, SF7BW125, 4/5CR
- -116 0.25 867.1Mhz, SF7BW125, 4/5CR
2020-11-20 13:42:10 7.8125°C 110.562% 3.27V 9986,12,15190,106,13482,123,10486,121,14856,114,15755,106 v255 52.1749 / 5.39618 0 0.137km -89 9.8 867.1Mhz, SF7BW125, 4/5CR
- -118 0.75 867.1Mhz, SF7BW125, 4/5CR
2020-11-20 13:10:37 7.75°C 108.125% 3.27V 9918,12,15185,106,13464,123,10474,121,14842,114,15733,105 v255 52.1749 / 5.39609 0 0.134km -88 9.5 867.1Mhz, SF7BW125, 4/5CR
- -113 3.75 867.1Mhz, SF7BW125, 4/5CR
2020-11-20 12:07:40 7.25°C 117.688% 3.27V 9831,12,15174,104,13478,123,10480,121,14843,114,15717,105 v255 52.1748 / 5.39615 0 0.147km -96 9.8 867.9Mhz, SF7BW125, 4/5CR
- -117 -1 867.9Mhz, SF7BW125, 4/5CR
2020-11-20 11:36:10 7.25°C 118.812% 3.27V 9801,12,15176,104,13469,123,10475,121,14836,114,15690,105 v255 52.1749 / 5.39612 0 0.134km -90 6.8 867.5Mhz, SF7BW125, 4/5CR
- -117 -4.25 867.5Mhz, SF7BW125, 4/5CR
2020-11-20 11:04:39 7.0625°C -2.3125% 3.27V 9856,12,15184,105,13469,123,10475,121,14852,114,15729,104 v255 52.1749 / 5.39618 0 0.138km -89 10.2 867.1Mhz, SF7BW125, 4/5CR
- -115 4 867.1Mhz, SF7BW125, 4/5CR
2020-11-20 10:33:07 6.375°C 1.8125% 3.27V 9679,12,15188,101,13490,123,10497,121,14859,114,15712,104 v255 52.175 / 5.39612 0 0.126km -90 9 867.1Mhz, SF7BW125, 4/5CR
- -113 5.25 867.1Mhz, SF7BW125, 4/5CR
2020-11-20 10:01:38 6°C 3.1875% 3.27V 9696,12,15197,99,13488,123,10490,121,14861,114,15727,104 v255 52.1749 / 5.39609 0 0.136km -90 10 867.1Mhz, SF7BW125, 4/5CR
- -114 4.5 867.1Mhz, SF7BW125, 4/5CR
2020-11-20 09:30:09 5.6875°C 3.5625% 3.27V 9705,12,15196,98,13496,123,10499,121,14865,114,15735,103 v255 52.1749 / 5.39612 0 0.137km -90 9.5 867.1Mhz, SF7BW125, 4/5CR
- -114 5.25 867.1Mhz, SF7BW125, 4/5CR
2020-11-20 08:58:38 5.25°C 4.4375% 3.27V 9718,12,15195,97,13496,123,10510,121,14872,115,15705,103 v255 52.1749 / 5.39615 0 0.138km -88 8.8 867.1Mhz, SF7BW125, 4/5CR
- -114 3.5 867.1Mhz, SF7BW125, 4/5CR
2020-11-20 08:27:13 4.9375°C 4.8125% 3.27V 9706,12,15191,96,13487,123,10504,121,14860,115,15739,103 v255 52.1748 / 5.39609 0 0.146km -89 9.8 867.1Mhz, SF7BW125, 4/5CR
- -112 5 867.1Mhz, SF7BW125, 4/5CR
2020-11-20 07:55:39 4.625°C 5.375% 3.27V 9691,12,15216,94,13508,123,10524,121,14899,115,15783,103 v255 52.175 / 5.39612 0 0.126km -85 8.8 867.3Mhz, SF7BW125, 4/5CR
- -114 2.25 867.3Mhz, SF7BW125, 4/5CR
2020-11-20 07:24:16 5°C 4.75% 3.27V 9704,12,15197,95,13492,123,10512,121,14879,115,15740,104 v255 52.1749 / 5.39612 0 0.137km -91 9.5 867.7Mhz, SF7BW125, 4/5CR
- -119 -7.75 867.7Mhz, SF7BW125, 4/5CR
2020-11-20 06:52:42 4.9375°C 4.75% 3.27V 9713,12,15220,95,13518,123,10526,121,14883,115,15754,104 v255 52.1749 / 5.39612 0 0.136km -97 9.5 867.1Mhz, SF7BW125, 4/5CR
- -114 4.75 867.1Mhz, SF7BW125, 4/5CR
2020-11-20 06:21:11 5.125°C 4.6875% 3.27V 9689,12,15214,96,13510,123,10529,121,14884,115,15760,104 v255 52.1749 / 5.39612 0 0.135km -93 7.5 867.5Mhz, SF7BW125, 4/5CR
- -115 -2 867.5Mhz, SF7BW125, 4/5CR
2020-11-20 05:49:47 5.0625°C 4.5625% 3.27V 9708,12,15207,96,13501,123,10508,121,14877,115,15761,104 v255 52.1749 / 5.39615 0 0.137km -92 9.2 867.1Mhz, SF7BW125, 4/5CR
- -115 4.25 867.1Mhz, SF7BW125, 4/5CR
2020-11-20 05:18:14 4.8125°C 4.4375% 3.27V 9706,12,15209,95,13497,123,10517,121,14875,115,15731,104 v255 52.1749 / 5.39609 0 0.136km -91 9.8 867.1Mhz, SF7BW125, 4/5CR
- -112 4.5 867.1Mhz, SF7BW125, 4/5CR
2020-11-20 04:46:46 4.75°C 4.5% 3.27V 9703,12,15217,94,13507,123,10524,121,14891,116,15747,104 v255 52.1749 / 5.39606 0 0.134km -93 7.8 867.5Mhz, SF7BW125, 4/5CR
2020-11-20 04:15:18 4.75°C 3.75% 3.27V 9699,12,15224,95,13508,123,10521,121,14893,116,15754,104 v255 52.1749 / 5.39615 0 0.138km -92 8.8 867.1Mhz, SF7BW125, 4/5CR
- -111 6.25 867.1Mhz, SF7BW125, 4/5CR
2020-11-20 03:43:47 4.5625°C 3.25% 3.27V 9680,12,15190,94,13500,123,10515,121,14882,116,15685,104 v255 52.1749 / 5.39606 0 0.136km -93 9.2 867.1Mhz, SF7BW125, 4/5CR
- -115 3.5 867.1Mhz, SF7BW125, 4/5CR
2020-11-20 03:12:21 4.375°C 3.25% 3.27V 9676,12,15216,93,13519,123,10529,121,14892,116,15737,104 v255 52.1749 / 5.39624 0 0.14km -94 9 867.9Mhz, SF7BW125, 4/5CR
- -120 -6.5 867.9Mhz, SF7BW125, 4/5CR
2020-11-20 02:40:51 4.3125°C 3.1875% 3.27V 9673,12,15210,92,13513,123,10523,121,14895,116,15738,105 v255 52.1749 / 5.39615 0 0.138km -93 10 867.1Mhz, SF7BW125, 4/5CR
- -112 4.25 867.1Mhz, SF7BW125, 4/5CR
2020-11-20 02:09:15 4.5°C 3.4375% 3.27V 9693,12,15211,93,13514,123,10525,121,14899,116,15718,105 v255 52.1749 / 5.39615 0 0.134km -93 9.8 867.1Mhz, SF7BW125, 4/5CR
- -114 3.5 867.1Mhz, SF7BW125, 4/5CR
2020-11-20 01:37:51 4.8125°C 3.5% 3.27V 9711,12,15212,94,13509,123,10531,121,14886,116,15709,105 v255 52.1748 / 5.39615 0 0.145km -95 10.2 867.1Mhz, SF7BW125, 4/5CR
- -113 3.75 867.1Mhz, SF7BW125, 4/5CR
2020-11-20 01:06:18 4.4375°C 4.9375% 3.27V 9691,12,15218,94,13506,123,10523,121,14871,117,15736,105 v255 52.1749 / 5.39618 0 0.137km -90 9.5 867.1Mhz, SF7BW125, 4/5CR
- -112 4.25 867.1Mhz, SF7BW125, 4/5CR
2020-11-20 00:34:56 4.6875°C 5.125% 3.27V 9696,12,15212,95,13501,123,10523,121,14878,117,15718,105 v255 52.1749 / 5.39603 0 0.134km -89 9.2 867.1Mhz, SF7BW125, 4/5CR
- -114 2.75 867.1Mhz, SF7BW125, 4/5CR
2020-11-20 00:03:22 4.75°C 4.875% 3.27V 9714,12,15202,95,13488,123,10524,121,14869,117,15736,105 v255 52.1749 / 5.39615 0 0.137km -93 7.2 867.5Mhz, SF7BW125, 4/5CR
- -117 -7.25 867.5Mhz, SF7BW125, 4/5CR
2020-11-19 23:31:52 4.25°C 4.25% 3.27V 9719,12,15200,95,13492,123,10511,121,14864,117,15718,106 v255 52.1749 / 5.39612 0 0.137km -90 9.2 867.1Mhz, SF7BW125, 4/5CR
- -113 3.75 867.1Mhz, SF7BW125, 4/5CR
2020-11-19 23:00:23 3.5625°C 6.25% 3.27V 9697,12,15205,92,13501,123,10521,121,14871,117,15681,106 v255 52.175 / 5.39612 0 0.126km -88 9 867.1Mhz, SF7BW125, 4/5CR
- -115 3.75 867.1Mhz, SF7BW125, 4/5CR
2020-11-19 22:28:56 3.6875°C 6.3125% 3.27V 9698,12,15203,92,13504,123,10524,121,14875,117,15661,106 v255 52.1749 / 5.39609 0 0.137km -91 9 867.1Mhz, SF7BW125, 4/5CR
- -114 2.75 867.1Mhz, SF7BW125, 4/5CR
2020-11-19 21:57:27 4°C 6.125% 3.27V 9674,12,15211,92,13511,123,10534,122,14881,117,15694,107 v255 52.1748 / 5.39615 0 0.149km -93 10.5 867.3Mhz, SF7BW125, 4/5CR
- -115 1.75 867.3Mhz, SF7BW125, 4/5CR
2020-11-19 21:25:59 4.375°C 6.375% 3.27V 9709,12,15218,94,13506,123,10521,122,14880,117,15695,107 v255 52.1749 / 5.39615 0 0.138km -91 7.8 867.5Mhz, SF7BW125, 4/5CR
2020-11-19 20:54:31 4.625°C 6.125% 3.27V 9698,12,15204,95,13488,123,10514,121,14856,117,15697,108 v255 52.1749 / 5.39609 0 - -115 3.25 867.1Mhz, SF7BW125, 4/5CR
2020-11-19 20:22:56 4.3125°C 6.5625% 3.27V 9722,12,15205,95,13498,123,10514,121,14849,117,15693,108 v255 52.1749 / 5.39615 0 0.138km -90 8 867.5Mhz, SF7BW125, 4/5CR
- -114 -5 867.5Mhz, SF7BW125, 4/5CR
2020-11-19 19:51:32 4.0625°C 7.5% 3.27V 9700,12,15223,93,13517,123,10532,122,14878,118,15667,109 v255 52.175 / 5.39606 0 0.126km -91 9.2 867.7Mhz, SF7BW125, 4/5CR
- -119 -4.5 867.7Mhz, SF7BW125, 4/5CR
2020-11-19 19:20:02 4.875°C 6.375% 3.27V 9715,12,15202,95,13490,123,10503,122,14847,118,15702,110 v255 52.175 / 5.39606 0 0.124km -93 9.2 867.9Mhz, SF7BW125, 4/5CR
- -120 -5.25 867.9Mhz, SF7BW125, 4/5CR
2020-11-19 18:48:37 5.9375°C 3.75% 3.27V 9750,12,15203,98,13485,123,10500,122,14860,118,15730,110 v255 52.1749 / 5.39612 0 0.136km -94 8 867.7Mhz, SF7BW125, 4/5CR
- -118 -5 867.7Mhz, SF7BW125, 4/5CR
2020-11-19 18:17:04 5.5°C 4.9375% 3.27V 9761,12,15196,97,13484,123,10501,121,14856,118,15701,111 v255 52.1749 / 5.39612 0 0.136km -95 10.2 867.1Mhz, SF7BW125, 4/5CR
- -112 4.75 867.1Mhz, SF7BW125, 4/5CR
2020-11-19 17:45:37 6.4375°C 5.6875% 3.27V 9754,12,15188,100,13480,123,10493,121,14851,118,15732,112 v255 52.1749 / 5.39615 0 0.136km -101 7.5 867.5Mhz, SF7BW125, 4/5CR
- -115 -1.25 867.5Mhz, SF7BW125, 4/5CR
2020-11-19 17:14:04 6.9375°C 2.75% 3.27V 9751,12,15184,102,13476,123,10485,121,14835,118,15749,113 v255 52.1749 / 5.39612 0 0.137km -93 10.2 867.9Mhz, SF7BW125, 4/5CR
- -112 5.75 867.9Mhz, SF7BW125, 4/5CR
2020-11-19 16:42:37 7.5°C 0.0625% 3.27V 9780,12,15183,104,13472,123,10483,121,14825,118,15713,113 v255 52.1749 / 5.39612 0 0.137km -90 8.8 867.1Mhz, SF7BW125, 4/5CR
- -113 2.75 867.1Mhz, SF7BW125, 4/5CR
2020-11-19 15:39:41 8.75°C 3.3125% 3.27V 9948,12,15169,109,13455,123,10470,121,14826,118,15694,115 v255 52.1748 / 5.39609 0 0.145km -87 9.2 867.1Mhz, SF7BW125, 4/5CR
- -119 -2.75 867.1Mhz, SF7BW125, 4/5CR
2020-11-19 15:08:05 9.3125°C 2.1875% 3.27V 10063,12,15157,111,13455,123,10465,121,14809,118,15690,115 v255 52.1749 / 5.39606 0 0.134km -90 9.2 867.1Mhz, SF7BW125, 4/5CR
- -114 4.75 867.1Mhz, SF7BW125, 4/5CR
2020-11-19 14:36:35 10.125°C 1.5625% 3.27V 10088,12,15152,114,13442,123,10440,121,14807,118,15702,115 v255 52.1749 / 5.39615 0 0.136km -93 9.5 867.1Mhz, SF7BW125, 4/5CR
- -114 5.25 867.1Mhz, SF7BW125, 4/5CR
2020-11-19 14:05:48 14.1875°C 102.375% 3.27V 10096,12,15128,124,13407,124,10408,123,14784,121,15763,119 v255 52.175 / 5.39615 0 0.128km -91 7.5 867.5Mhz, SF7BW125, 4/5CR
- -113 -0.75 867.5Mhz, SF7BW125, 4/5CR
2020-11-16 22:01:45 8.375°C 1.1875% 3.1V 10069,12,15661,107,13255,123,10351,121,15340,117,16367,111 v255 52.1749 / 5.39609 0 - -108 6.5 867.1Mhz, SF7BW125, 4/5CR
2020-11-16 21:30:12 8.1875°C 1.1875% 2.99V 10020,12,15647,106,13230,123,10356,121,15340,117,16396,112 v255 52.1749 / 5.39612 0 0.138km -93 9.8 867.9Mhz, SF7BW125, 4/5CR
- -109 5.75 867.9Mhz, SF7BW125, 4/5CR
2020-11-16 20:57:31 8.25°C 1.0625% 3.09V 10073,12,15653,106,13262,123,10356,121,15341,117,16365,112 v255 52.175 / 5.39609 0 0.124km -95 9.2 867.1Mhz, SF7BW125, 4/5CR
- -111 6.75 867.1Mhz, SF7BW125, 4/5CR
2020-11-16 20:26:02 8.5°C 0.6875% 3.11V 10069,12,15672,107,13276,123,10366,121,15347,117,16367,112 v255 52.1749 / 5.39615 0 0.14km -112 5 867.3Mhz, SF7BW125, 4/5CR
- -111 4.25 867.3Mhz, SF7BW125, 4/5CR
2020-11-16 19:54:32 8.5625°C 0.3125% 3.09V 10071,12,15657,108,13274,123,10359,121,15344,117,16364,113 v255 52.1749 / 5.39609 0 0.137km -95 10 867.1Mhz, SF7BW125, 4/5CR
- -111 7.25 867.1Mhz, SF7BW125, 4/5CR
2020-11-16 19:22:56 8.875°C -0.8125% 3.13V 10074,12,15660,108,13280,123,10369,121,15348,117,16375,113 v255 52.1749 / 5.39609 0 0.136km -101 8.8 867.9Mhz, SF7BW125, 4/5CR
- -111 7 867.9Mhz, SF7BW125, 4/5CR
2020-11-16 18:51:27 9.3125°C -1.625% 3.15V 10079,12,15652,110,13279,123,10358,121,15333,117,16371,114 v255 52.1749 / 5.39615 0 0.135km -106 7 867.1Mhz, SF7BW125, 4/5CR
- -108 6.75 867.1Mhz, SF7BW125, 4/5CR
2020-11-16 18:19:53 9.4375°C -2.3125% 3.15V 10083,12,15658,110,13289,123,10376,121,15359,117,16393,114 v255 52.1749 / 5.39612 0 0.136km -101 8.8 867.7Mhz, SF7BW125, 4/5CR
- -109 6.75 867.7Mhz, SF7BW125, 4/5CR
2020-11-16 17:48:22 9.625°C -3.25% 3.15V 10078,12,15650,111,13284,123,10370,121,15339,117,16365,114 v255 52.1749 / 5.39612 0 0.135km -107 9.5 867.7Mhz, SF7BW125, 4/5CR
- -108 6.75 867.7Mhz, SF7BW125, 4/5CR
2020-11-16 17:16:52 10°C -4.6875% 3.17V 10079,12,15637,112,13290,123,10367,121,15336,117,16385,115 v255 52.1749 / 5.39612 0 0.136km -96 9.5 867.1Mhz, SF7BW125, 4/5CR
- -113 5.75 867.1Mhz, SF7BW125, 4/5CR
2020-11-16 16:45:24 10.0625°C -4.25% 3.16V 10101,12,15628,112,13308,123,10384,121,15315,117,16387,115 v255 52.175 / 5.39612 0 0.125km -100 10 867.1Mhz, SF7BW125, 4/5CR
- -113 7 867.1Mhz, SF7BW125, 4/5CR
2020-11-16 16:13:50 10.25°C -4.1875% 3.19V 10112,12,15628,112,13304,123,10381,121,15323,117,16412,115 v255 52.1749 / 5.39612 0 - -108 9 867.1Mhz, SF7BW125, 4/5CR
0.136km -104 7.2 867.1Mhz, SF7BW125, 4/5CR
2020-11-16 15:42:18 10.375°C -4.125% 3.17V 10119,12,15448,112,13310,123,10392,121,15170,117,16418,115 v255 52.1749 / 5.39612 0 0.134km -90 9.5 867.1Mhz, SF7BW125, 4/5CR
- -109 7 867.1Mhz, SF7BW125, 4/5CR
2020-11-16 15:10:51 10.875°C -5.0625% 3.19V 10111,12,15493,114,13310,123,10378,121,15175,117,16416,115 v255 52.175 / 5.39615 0 0.129km -91 9.8 867.1Mhz, SF7BW125, 4/5CR
- -111 5.5 867.1Mhz, SF7BW125, 4/5CR
2020-11-16 14:39:19 11.3125°C -5.5% 3.23V 10127,12,15445,117,13333,123,10400,121,15097,117,16412,115 v255 52.175 / 5.39609 0 0.126km -87 9.5 867.1Mhz, SF7BW125, 4/5CR
- -108 7 867.1Mhz, SF7BW125, 4/5CR

Message count: 200
Node count: 1

Messages per node

Number of messages in list aboveNodes
200

Statistics per gateway

GatewayNumber of messagesNumber of nodesNodes
1971 (0.126km)
1851

Filter by dataset